createdAt,value
2019-02-16T00:00:39.065Z,10.67
2019-02-16T00:03:07.402Z,8.47
2019-02-16T00:05:35.710Z,10.97
2019-02-16T00:08:04.171Z,16.27
2019-02-16T00:10:32.470Z,15.73
2019-02-16T00:13:00.824Z,18.00
2019-02-16T00:15:29.439Z,12.63
2019-02-16T00:17:57.886Z,12.83
2019-02-16T00:20:26.222Z,15.00
2019-02-16T00:22:54.756Z,15.47
2019-02-16T00:25:23.486Z,15.20
2019-02-16T00:27:51.950Z,15.60
2019-02-16T00:30:20.384Z,10.30
2019-02-16T00:32:48.703Z,20.90
2019-02-16T00:35:17.094Z,16.97
2019-02-16T00:37:45.759Z,19.33
2019-02-16T00:40:14.218Z,18.50
2019-02-16T00:42:42.708Z,20.47
2019-02-16T00:45:11.327Z,20.20
2019-02-16T00:47:39.678Z,24.37
2019-02-16T00:50:08.077Z,19.67
2019-02-16T00:52:36.622Z,22.60
2019-02-16T00:55:05.067Z,22.27
2019-02-16T00:57:33.442Z,23.63
2019-02-16T01:00:02.126Z,21.37
2019-02-16T01:02:30.473Z,17.00
2019-02-16T01:04:58.905Z,26.57
2019-02-16T01:07:27.284Z,27.93
2019-02-16T01:09:55.593Z,27.13
2019-02-16T01:12:24.138Z,18.07
2019-02-16T01:14:52.633Z,20.27
2019-02-16T01:17:20.935Z,21.13
2019-02-16T01:19:49.504Z,22.03
2019-02-16T01:22:17.979Z,20.03
2019-02-16T01:24:46.309Z,21.47
2019-02-16T01:27:14.978Z,23.93
2019-02-16T01:29:43.622Z,23.60
2019-02-16T01:32:11.940Z,25.43
2019-02-16T01:34:40.417Z,20.47
2019-02-16T01:37:08.878Z,25.10
2019-02-16T01:39:37.462Z,19.87
2019-02-16T01:42:05.935Z,26.40
2019-02-16T01:44:34.581Z,26.10
2019-02-16T01:47:02.940Z,22.30
2019-02-16T01:49:31.260Z,24.17
2019-02-16T01:51:59.825Z,25.13
2019-02-16T01:54:28.130Z,19.83
2019-02-16T01:56:56.507Z,20.27
2019-02-16T01:59:25.213Z,26.53
2019-02-16T02:01:53.920Z,23.30
2019-02-16T02:04:22.251Z,26.10
2019-02-16T02:06:50.657Z,20.73
2019-02-16T02:09:19.096Z,25.57
2019-02-16T02:11:47.456Z,22.90
2019-02-16T02:14:15.959Z,24.73
2019-02-16T02:16:44.293Z,26.67
2019-02-16T02:19:12.732Z,27.93
2019-02-16T02:21:41.622Z,24.80
2019-02-16T02:24:09.753Z,26.50
2019-02-16T02:26:38.187Z,25.47
2019-02-16T02:29:06.857Z,25.07
2019-02-16T02:31:37.450Z,30.17
2019-02-16T02:34:03.673Z,21.27
2019-02-16T02:36:32.324Z,27.73
2019-02-16T02:39:00.694Z,24.67
2019-02-16T02:41:29.070Z,23.97
2019-02-16T02:43:57.515Z,28.67
2019-02-16T02:46:25.874Z,24.47
2019-02-16T02:48:54.284Z,25.63
2019-02-16T02:51:22.687Z,25.10
2019-02-16T02:53:51.174Z,21.83
2019-02-16T02:56:19.582Z,27.10
2019-02-16T02:58:48.210Z,24.03
2019-02-16T03:01:16.419Z,23.40
2019-02-16T03:03:44.731Z,25.40
2019-02-16T03:06:13.317Z,28.30
2019-02-16T03:08:41.644Z,25.43
2019-02-16T03:11:09.957Z,24.83
2019-02-16T03:13:38.494Z,21.87
2019-02-16T03:16:06.941Z,19.07
2019-02-16T03:18:35.266Z,22.40
2019-02-16T03:21:03.891Z,22.20
2019-02-16T03:23:32.414Z,21.87
2019-02-16T03:26:11.745Z,21.87
2019-02-16T03:28:47.603Z,20.30
2019-02-16T03:31:48.388Z,21.00
2019-02-16T03:34:21.112Z,19.67
2019-02-16T03:38:09.324Z,25.07
2019-02-16T03:40:37.642Z,19.67
2019-02-16T03:43:05.943Z,25.23
2019-02-16T03:45:34.595Z,25.53
2019-02-16T03:48:02.961Z,24.03
2019-02-16T03:50:31.278Z,24.73
2019-02-16T03:52:59.739Z,17.37
2019-02-16T03:55:28.056Z,25.70
2019-02-16T03:57:56.390Z,25.93
2019-02-16T04:00:25.171Z,24.23
2019-02-16T04:02:53.499Z,20.10
2019-02-16T04:05:21.880Z,22.70
2019-02-16T04:07:50.349Z,23.90
2019-02-16T04:10:18.662Z,21.30
2019-02-16T04:12:47.266Z,20.23
2019-02-16T04:15:15.925Z,17.03
2019-02-16T04:17:44.231Z,25.40
2019-02-16T04:20:12.612Z,25.97
2019-02-16T04:22:41.494Z,22.53
2019-02-16T04:25:09.894Z,19.07
2019-02-16T04:27:38.549Z,20.10
2019-02-16T04:30:08.019Z,21.77
2019-02-16T04:32:36.332Z,22.27
2019-02-16T04:35:05.200Z,23.97
2019-02-16T04:37:34.212Z,25.17
2019-02-16T04:40:02.585Z,20.23
2019-02-16T04:42:30.982Z,20.03
2019-02-16T04:44:59.805Z,17.50
2019-02-16T04:47:28.173Z,22.27
2019-02-16T04:49:56.496Z,23.00
2019-02-16T04:52:33.973Z,22.07
2019-02-16T04:54:53.340Z,20.90
2019-02-16T04:57:21.721Z,21.60
2019-02-16T04:59:50.124Z,21.73
2019-02-16T05:02:18.608Z,18.57
2019-02-16T05:04:47.084Z,24.57
2019-02-16T05:07:15.633Z,22.33
2019-02-16T05:09:43.946Z,23.03
2019-02-16T05:12:12.305Z,22.63
2019-02-16T05:14:40.727Z,19.70
2019-02-16T05:17:09.061Z,24.97
2019-02-16T05:19:37.348Z,24.00
2019-02-16T05:22:06.087Z,19.47
2019-02-16T05:24:34.646Z,20.13
2019-02-16T05:27:03.055Z,24.03
2019-02-16T05:29:31.840Z,22.13
2019-02-16T05:32:00.204Z,19.57
2019-02-16T05:34:28.606Z,26.33
2019-02-16T05:36:57.460Z,23.47
2019-02-16T05:39:25.735Z,14.47
2019-02-16T05:41:54.307Z,21.13
2019-02-16T05:44:23.066Z,27.40
2019-02-16T05:46:51.492Z,22.00
2019-02-16T05:49:19.877Z,19.70
2019-02-16T05:51:48.354Z,19.90
2019-02-16T05:54:16.727Z,27.37
2019-02-16T05:56:45.015Z,22.13
2019-02-16T05:59:14.514Z,27.57
2019-02-16T06:01:42.872Z,20.13
2019-02-16T06:04:11.421Z,22.20
2019-02-16T06:06:39.838Z,20.43
2019-02-16T06:09:08.213Z,23.13
2019-02-16T06:11:36.554Z,24.53
2019-02-16T06:14:05.244Z,24.10
2019-02-16T06:16:33.592Z,24.60
2019-02-16T06:19:01.898Z,21.97
2019-02-16T06:21:30.535Z,25.50
2019-02-16T06:23:59.073Z,21.77
2019-02-16T06:26:27.446Z,22.93
2019-02-16T06:28:55.857Z,23.60
2019-02-16T06:31:24.187Z,19.40
2019-02-16T06:33:52.514Z,21.43
2019-02-16T06:36:28.318Z,19.00
2019-02-16T06:38:57.004Z,19.50
2019-02-16T06:41:25.327Z,18.77
2019-02-16T06:43:53.755Z,25.00
2019-02-16T06:46:22.142Z,19.53
2019-02-16T06:48:50.793Z,15.27
2019-02-16T06:51:19.484Z,30.47
2019-02-16T06:53:47.856Z,16.63
2019-02-16T06:56:20.669Z,18.50
2019-02-16T06:58:48.995Z,24.27
2019-02-16T07:01:17.317Z,18.20
2019-02-16T07:03:46.307Z,21.47
2019-02-16T07:06:14.664Z,16.20
2019-02-16T07:08:44.235Z,18.10
2019-02-16T07:11:11.810Z,15.73
2019-02-16T07:13:40.086Z,18.53
2019-02-16T07:16:14.338Z,19.23
2019-02-16T07:18:48.128Z,19.23
2019-02-16T07:21:16.929Z,16.60
2019-02-16T07:23:45.254Z,16.93
2019-02-16T07:26:13.585Z,20.00
2019-02-16T07:28:42.677Z,21.73
2019-02-16T07:31:11.876Z,22.93
2019-02-16T07:33:43.293Z,18.53
2019-02-16T07:36:11.776Z,20.13
2019-02-16T07:38:40.501Z,17.73
2019-02-16T07:41:09.632Z,20.63
2019-02-16T07:44:14.318Z,21.70
2019-02-16T07:46:49.938Z,23.77
2019-02-16T07:49:23.559Z,18.73
2019-02-16T07:52:00.131Z,17.33
2019-02-16T07:54:49.870Z,17.47
2019-02-16T07:57:22.688Z,21.53
2019-02-16T08:00:13.015Z,16.00
2019-02-16T08:02:59.495Z,19.07
2019-02-16T08:05:33.183Z,15.33
2019-02-16T08:08:08.268Z,17.97
2019-02-16T08:10:44.835Z,21.77
2019-02-16T08:13:18.501Z,14.83
2019-02-16T08:15:54.140Z,20.37
2019-02-16T08:19:33.000Z,18.87
2019-02-16T08:22:06.698Z,17.47
2019-02-16T08:24:41.502Z,14.17
2019-02-16T08:27:15.409Z,19.03
2019-02-16T08:29:51.122Z,17.53
2019-02-16T08:32:28.500Z,10.60
2019-02-16T08:35:08.120Z,17.30
2019-02-16T08:37:42.722Z,14.57
2019-02-16T08:40:18.413Z,20.87
2019-02-16T08:42:51.957Z,15.13
2019-02-16T08:45:24.716Z,16.10
2019-02-16T08:47:58.439Z,14.73
2019-02-16T08:50:32.300Z,12.47
2019-02-16T08:53:09.089Z,14.90
2019-02-16T08:55:47.186Z,14.37
2019-02-16T08:58:20.328Z,13.20
2019-02-16T09:00:54.425Z,14.57
2019-02-16T09:03:28.112Z,17.77
2019-02-16T09:07:07.175Z,11.20
2019-02-16T09:09:54.781Z,20.30
2019-02-16T09:12:30.540Z,13.03
2019-02-16T09:15:07.523Z,12.80
2019-02-16T09:17:41.426Z,18.97
2019-02-16T09:20:15.237Z,12.20
2019-02-16T09:23:02.919Z,15.37
2019-02-16T09:25:47.435Z,10.67
2019-02-16T09:30:24.210Z,17.70
2019-02-16T09:33:30.838Z,11.23
2019-02-16T09:36:04.450Z,12.80
2019-02-16T09:38:39.954Z,13.13
2019-02-16T09:41:13.482Z,16.03
2019-02-16T09:45:51.755Z,10.97
2019-02-16T09:48:43.309Z,12.33
2019-02-16T09:51:18.052Z,11.07
2019-02-16T09:54:08.145Z,14.40
2019-02-16T09:56:37.017Z,13.70
2019-02-16T09:59:10.416Z,14.03
2019-02-16T10:01:45.961Z,9.77
2019-02-16T10:04:18.738Z,17.13
2019-02-16T10:07:00.687Z,12.90
2019-02-16T10:09:41.088Z,11.10
2019-02-16T10:12:15.132Z,11.77
2019-02-16T10:14:47.719Z,10.60
2019-02-16T10:17:40.631Z,15.30
2019-02-16T10:20:31.224Z,15.17
2019-02-16T10:23:05.298Z,11.50
2019-02-16T10:27:40.549Z,14.90
2019-02-16T10:30:18.445Z,15.60
2019-02-16T10:32:52.024Z,14.97
2019-02-16T10:35:26.646Z,14.70
2019-02-16T10:38:03.213Z,17.07
2019-02-16T10:41:07.252Z,12.63
2019-02-16T10:45:42.425Z,15.37
2019-02-16T10:48:15.493Z,11.33
2019-02-16T10:51:00.019Z,12.63
2019-02-16T10:53:38.974Z,14.13
2019-02-16T10:56:12.567Z,16.00
2019-02-16T10:58:58.764Z,15.23
2019-02-16T11:01:34.368Z,14.20
2019-02-16T11:04:19.133Z,13.47
2019-02-16T11:07:06.723Z,21.07
2019-02-16T11:09:39.440Z,14.43
2019-02-16T11:12:13.100Z,18.23
2019-02-16T11:14:46.549Z,14.00
2019-02-16T11:17:22.128Z,22.13
2019-02-16T11:19:56.002Z,15.27
2019-02-16T11:22:32.552Z,15.90
2019-02-16T11:27:07.934Z,18.10
2019-02-16T11:31:45.225Z,20.40
2019-02-16T11:34:22.724Z,22.10
2019-02-16T11:37:59.641Z,19.57
2019-02-16T11:40:32.431Z,24.03
2019-02-16T11:43:14.177Z,21.43
2019-02-16T11:46:02.852Z,22.20
2019-02-16T11:48:36.447Z,21.60
2019-02-16T11:51:10.252Z,20.77
2019-02-16T11:53:42.921Z,19.30
2019-02-16T11:58:18.291Z,19.07
2019-02-16T12:00:51.983Z,23.63
2019-02-16T12:03:26.562Z,20.97
2019-02-16T12:06:03.643Z,21.73
2019-02-16T12:09:41.643Z,20.17
2019-02-16T12:12:15.208Z,21.67
2019-02-16T12:14:50.787Z,21.63
2019-02-16T12:17:25.311Z,27.00
2019-02-16T12:19:58.068Z,26.23
2019-02-16T12:22:30.711Z,17.47
2019-02-16T12:25:14.451Z,21.60
2019-02-16T12:28:49.371Z,16.00
2019-02-16T12:31:22.101Z,19.13
2019-02-16T12:33:57.449Z,26.23
2019-02-16T12:37:34.682Z,19.83
2019-02-16T12:40:10.234Z,22.70
2019-02-16T12:42:43.939Z,25.50
2019-02-16T12:45:21.333Z,25.33
2019-02-16T12:49:55.059Z,26.50
2019-02-16T12:52:38.546Z,22.90
2019-02-16T12:55:14.927Z,27.47
2019-02-16T12:57:47.041Z,20.47
2019-02-16T13:00:20.775Z,23.03
2019-02-16T13:02:59.306Z,23.47
2019-02-16T13:05:33.261Z,23.07
2019-02-16T13:08:07.042Z,21.03
2019-02-16T13:10:47.732Z,28.17
2019-02-16T13:15:27.892Z,28.90
2019-02-16T13:18:01.883Z,28.60
2019-02-16T13:20:34.469Z,26.23
2019-02-16T13:24:09.890Z,26.30
2019-02-16T13:27:52.122Z,18.93
2019-02-16T13:30:26.740Z,28.17
2019-02-16T13:35:05.837Z,23.00
2019-02-16T13:37:44.424Z,28.27
2019-02-16T13:40:25.005Z,22.70
2019-02-16T13:42:58.678Z,25.93
2019-02-16T13:45:33.242Z,23.57
2019-02-16T13:48:08.955Z,25.60
2019-02-16T13:50:44.546Z,20.90
2019-02-16T13:53:18.615Z,23.47
2019-02-16T13:55:53.124Z,20.77
2019-02-16T13:58:31.958Z,21.83
2019-02-16T14:01:08.679Z,22.07
2019-02-16T14:03:43.311Z,19.40
2019-02-16T14:06:33.991Z,28.10
2019-02-16T14:09:13.652Z,26.77
2019-02-16T14:11:50.258Z,21.50
2019-02-16T14:14:25.827Z,26.40
2019-02-16T14:16:59.433Z,25.17
2019-02-16T14:19:27.889Z,24.20
2019-02-16T14:21:56.218Z,24.33
2019-02-16T14:24:57.937Z,20.93
2019-02-16T14:27:26.276Z,24.40
2019-02-16T14:29:54.739Z,20.10
2019-02-16T14:32:23.256Z,20.83
2019-02-16T14:34:51.669Z,20.87
2019-02-16T14:37:27.225Z,23.47
2019-02-16T14:39:55.870Z,17.47
2019-02-16T14:42:24.194Z,21.77
2019-02-16T14:44:52.899Z,18.50
2019-02-16T14:47:21.380Z,20.67
2019-02-16T14:49:49.783Z,26.23
2019-02-16T14:52:18.337Z,20.47
2019-02-16T14:54:46.915Z,19.40
2019-02-16T14:57:15.534Z,21.90
2019-02-16T14:59:44.078Z,22.87
2019-02-16T15:02:12.438Z,20.80
2019-02-16T15:04:40.823Z,21.70
2019-02-16T15:07:09.299Z,24.40
2019-02-16T15:09:37.736Z,22.90
2019-02-16T15:12:06.805Z,17.53
2019-02-16T15:14:35.575Z,24.87
2019-02-16T15:17:04.125Z,26.43
2019-02-16T15:19:32.565Z,23.37
2019-02-16T15:22:01.094Z,19.63
2019-02-16T15:24:29.536Z,20.50
2019-02-16T15:26:58.317Z,22.83
2019-02-16T15:29:27.380Z,20.80
2019-02-16T15:31:55.763Z,26.90
2019-02-16T15:34:24.131Z,23.47
2019-02-16T15:36:52.834Z,21.07
2019-02-16T15:39:21.177Z,20.80
2019-02-16T15:41:49.715Z,23.73
2019-02-16T15:44:18.244Z,20.57
2019-02-16T15:46:46.664Z,21.33
2019-02-16T15:49:15.021Z,26.67
2019-02-16T15:51:43.535Z,29.07
2019-02-16T15:54:11.956Z,32.40
2019-02-16T15:56:40.293Z,32.67
2019-02-16T15:59:09.591Z,43.70
2019-02-16T16:01:37.082Z,39.90
2019-02-16T16:04:05.434Z,37.17
2019-02-16T16:06:33.944Z,46.83
2019-02-16T16:09:06.798Z,54.10
2019-02-16T16:11:41.449Z,58.27
2019-02-16T16:14:17.933Z,52.43
2019-02-16T16:16:58.746Z,54.17
2019-02-16T16:19:38.306Z,58.17
2019-02-16T16:22:15.069Z,54.60
2019-02-16T16:24:50.563Z,52.23
2019-02-16T16:27:27.208Z,62.80
2019-02-16T16:30:00.927Z,55.73
2019-02-16T16:34:36.507Z,57.90
2019-02-16T16:37:09.025Z,59.73
2019-02-16T16:39:42.731Z,68.10
2019-02-16T16:42:22.329Z,63.13
2019-02-16T16:45:26.367Z,61.87
2019-02-16T16:48:03.924Z,56.50
2019-02-16T16:51:42.247Z,60.43
2019-02-16T16:54:15.966Z,54.33
2019-02-16T16:56:49.836Z,56.97
2019-02-16T16:59:26.438Z,60.43
2019-02-16T17:02:35.488Z,58.40
2019-02-16T17:07:14.671Z,58.30
2019-02-16T17:10:05.328Z,62.50
2019-02-16T17:12:39.031Z,64.13
2019-02-16T17:15:16.326Z,69.37
2019-02-16T17:17:49.899Z,58.27
2019-02-16T17:22:31.361Z,65.60
2019-02-16T17:25:05.277Z,59.90
2019-02-16T17:27:39.537Z,60.47
2019-02-16T17:30:16.827Z,57.37
2019-02-16T17:32:50.682Z,60.57
2019-02-16T17:37:29.105Z,61.67
2019-02-16T17:40:03.800Z,66.20
2019-02-16T17:42:38.292Z,68.97
2019-02-16T17:45:20.496Z,65.47
2019-02-16T17:47:55.920Z,62.53
2019-02-16T17:50:29.780Z,65.47
2019-02-16T17:53:03.474Z,65.50
2019-02-16T17:56:34.513Z,56.60
2019-02-16T17:59:07.947Z,63.90
2019-02-16T18:01:57.474Z,66.97
2019-02-16T18:06:33.328Z,69.03
2019-02-16T18:09:13.806Z,73.07
2019-02-16T18:11:47.323Z,66.17
2019-02-16T18:14:24.470Z,63.87
2019-02-16T18:17:04.003Z,78.93
2019-02-16T18:19:42.677Z,67.60
2019-02-16T18:22:16.091Z,77.33
2019-02-16T18:24:49.885Z,76.90
2019-02-16T18:27:23.561Z,74.27
2019-02-16T18:30:15.545Z,60.63
2019-02-16T18:32:53.006Z,62.90
2019-02-16T18:37:31.300Z,64.60
2019-02-16T18:40:05.950Z,73.27
2019-02-16T18:42:46.215Z,64.07
2019-02-16T18:47:24.655Z,78.27
2019-02-16T18:50:31.793Z,76.33
2019-02-16T18:53:07.946Z,68.73
2019-02-16T18:55:44.609Z,66.47
2019-02-16T18:58:19.243Z,64.30
2019-02-16T19:01:24.726Z,72.97
2019-02-16T19:04:01.678Z,74.67
2019-02-16T19:06:41.373Z,72.43
2019-02-16T19:11:17.910Z,67.60
2019-02-16T19:13:50.543Z,83.70
2019-02-16T19:18:25.967Z,69.43
2019-02-16T19:21:04.549Z,71.20
2019-02-16T19:23:38.370Z,64.33
2019-02-16T19:26:12.017Z,81.80
2019-02-16T19:28:47.620Z,70.27
2019-02-16T19:31:21.281Z,77.80
2019-02-16T19:34:59.563Z,85.63
2019-02-16T19:37:32.151Z,69.70
2019-02-16T19:40:10.042Z,84.03
2019-02-16T19:42:57.677Z,76.33
2019-02-16T19:45:50.271Z,65.70
2019-02-16T19:50:31.454Z,76.97
2019-02-16T19:53:05.951Z,73.93
2019-02-16T19:55:39.736Z,80.03
2019-02-16T19:58:14.455Z,74.93
2019-02-16T20:00:59.051Z,78.00
2019-02-16T20:03:37.770Z,65.90
2019-02-16T20:06:14.264Z,75.77
2019-02-16T20:08:48.011Z,69.80
2019-02-16T20:11:55.696Z,83.00
2019-02-16T20:14:29.356Z,76.43
2019-02-16T20:17:03.818Z,83.30
2019-02-16T20:19:45.759Z,78.97
2019-02-16T20:22:19.308Z,84.60
2019-02-16T20:25:26.401Z,67.53
2019-02-16T20:28:00.938Z,82.07
2019-02-16T20:30:33.856Z,84.50
2019-02-16T20:33:07.620Z,82.47
2019-02-16T20:35:48.180Z,71.53
2019-02-16T20:38:35.797Z,83.10
2019-02-16T20:41:41.979Z,73.23
2019-02-16T20:44:14.674Z,79.70
2019-02-16T20:46:51.922Z,75.93
2019-02-16T20:49:31.536Z,80.90
2019-02-16T20:52:05.580Z,84.13
2019-02-16T20:54:49.156Z,75.17
2019-02-16T20:57:22.323Z,87.40
2019-02-16T21:00:00.854Z,74.40
2019-02-16T21:02:33.682Z,72.27
2019-02-16T21:05:14.330Z,77.27
2019-02-16T21:07:49.950Z,73.07
2019-02-16T21:10:24.455Z,58.90
2019-02-16T21:12:59.529Z,75.73
2019-02-16T21:15:47.457Z,73.87
2019-02-16T21:19:18.108Z,66.20
2019-02-16T21:21:59.773Z,81.10
2019-02-16T21:24:38.326Z,77.23
2019-02-16T21:27:11.282Z,65.87
2019-02-16T21:29:49.702Z,69.73
2019-02-16T21:32:23.266Z,73.83
2019-02-16T21:34:57.114Z,75.33
2019-02-16T21:37:30.599Z,74.67
2019-02-16T21:40:05.416Z,71.97
2019-02-16T21:42:38.029Z,64.73
2019-02-16T21:45:14.561Z,73.50
2019-02-16T21:47:48.684Z,74.70
2019-02-16T21:50:27.261Z,72.60
2019-02-16T21:53:03.749Z,75.90
2019-02-16T21:57:43.042Z,74.77
2019-02-16T22:00:21.795Z,62.90
2019-02-16T22:02:55.095Z,68.20
2019-02-16T22:05:34.888Z,67.87
2019-02-16T22:08:08.531Z,78.87
2019-02-16T22:10:42.080Z,75.90
2019-02-16T22:13:10.391Z,68.53
2019-02-16T22:15:38.767Z,80.10
2019-02-16T22:18:07.611Z,80.30
2019-02-16T22:20:35.963Z,70.00
2019-02-16T22:23:04.365Z,77.67
2019-02-16T22:25:32.869Z,73.10
2019-02-16T22:28:01.223Z,74.33
2019-02-16T22:30:29.585Z,73.07
2019-02-16T22:32:58.140Z,55.30
2019-02-16T22:35:26.455Z,59.77
2019-02-16T22:37:54.748Z,60.77
2019-02-16T22:40:23.617Z,60.00
2019-02-16T22:42:51.976Z,68.73
2019-02-16T22:45:20.298Z,61.70
2019-02-16T22:47:49.060Z,75.57
2019-02-16T22:50:17.387Z,62.50
2019-02-16T22:52:45.758Z,84.00
2019-02-16T22:55:14.190Z,61.67
2019-02-16T22:57:42.480Z,71.20
2019-02-16T23:00:13.913Z,73.70
2019-02-16T23:02:42.580Z,79.17
2019-02-16T23:05:11.010Z,67.23
2019-02-16T23:07:39.460Z,53.30
2019-02-16T23:10:09.066Z,65.07
2019-02-16T23:12:37.436Z,73.20
2019-02-16T23:15:06.216Z,65.07
2019-02-16T23:17:34.973Z,75.13
2019-02-16T23:20:03.557Z,58.90
2019-02-16T23:22:31.980Z,68.07
2019-02-16T23:25:00.408Z,75.33
2019-02-16T23:27:28.710Z,70.47
2019-02-16T23:29:57.136Z,77.50
2019-02-16T23:32:25.591Z,74.13
2019-02-16T23:34:53.990Z,83.10
2019-02-16T23:37:22.362Z,87.07
2019-02-16T23:39:50.988Z,82.40
2019-02-16T23:42:19.342Z,103.07
2019-02-16T23:44:47.639Z,92.63
2019-02-16T23:47:16.111Z,83.03
2019-02-16T23:49:44.418Z,85.50
2019-02-16T23:52:12.744Z,100.00
2019-02-16T23:54:41.702Z,102.07
2019-02-16T23:57:10.071Z,111.57
2019-02-16T23:59:38.423Z,85.33
